createdAt,value
2022-12-27T00:00:17.126Z,0
2022-12-27T00:05:18.324Z,0
2022-12-27T00:10:18.623Z,0
2022-12-27T00:36:59.446Z,0
2022-12-27T00:40:17.610Z,0
2022-12-27T00:45:16.795Z,0
2022-12-27T00:50:16.944Z,0
2022-12-27T00:55:16.990Z,0
2022-12-27T01:00:16.797Z,0
2022-12-27T01:05:16.852Z,0
2022-12-27T01:10:16.818Z,0
2022-12-27T01:15:16.919Z,0
2022-12-27T01:20:19.219Z,0
2022-12-27T01:25:16.949Z,0
2022-12-27T01:30:17.275Z,0
2022-12-27T01:35:16.800Z,0
2022-12-27T01:45:36.633Z,0
2022-12-27T01:50:16.876Z,0
2022-12-27T01:55:16.832Z,0
2022-12-27T02:00:16.804Z,0
2022-12-27T02:05:17.848Z,0
2022-12-27T02:10:16.819Z,0
2022-12-27T02:15:16.775Z,0
2022-12-27T02:20:16.853Z,0
2022-12-27T02:25:17.056Z,0
2022-12-27T02:30:16.835Z,0
2022-12-27T02:35:17.001Z,0
2022-12-27T02:40:16.861Z,0
2022-12-27T02:45:17.111Z,0
2022-12-27T02:50:17.091Z,0
2022-12-27T02:55:17.408Z,0
2022-12-27T03:00:16.835Z,0
2022-12-27T03:05:17.024Z,0
2022-12-27T03:10:17.465Z,0
2022-12-27T03:15:16.824Z,0
2022-12-27T03:20:17.353Z,0
2022-12-27T03:25:16.845Z,0
2022-12-27T03:30:17.961Z,0
2022-12-27T03:35:16.868Z,0
2022-12-27T03:40:16.878Z,0
2022-12-27T03:45:17.059Z,0
2022-12-27T03:50:16.893Z,0
2022-12-27T03:55:17.014Z,0
2022-12-27T04:00:19.968Z,0
2022-12-27T04:05:16.897Z,0
2022-12-27T04:10:17.107Z,0
2022-12-27T04:15:16.837Z,0
2022-12-27T04:20:16.868Z,0
2022-12-27T04:25:16.928Z,0
2022-12-27T04:30:17.838Z,0
2022-12-27T04:35:16.984Z,0
2022-12-27T04:40:16.936Z,0
2022-12-27T04:45:16.944Z,0
2022-12-27T04:50:16.950Z,0
2022-12-27T04:55:16.939Z,0
2022-12-27T05:05:17.092Z,0
2022-12-27T05:10:17.116Z,0
2022-12-27T05:15:16.863Z,0
2022-12-27T05:20:17.031Z,0
2022-12-27T05:25:17.036Z,0
2022-12-27T05:30:16.973Z,0
2022-12-27T05:35:17.055Z,0
2022-12-27T05:40:17.112Z,0
2022-12-27T05:45:18.380Z,0
2022-12-27T05:50:16.918Z,0
2022-12-27T05:55:16.937Z,0
2022-12-27T06:00:16.924Z,0
2022-12-27T06:05:17.046Z,0
2022-12-27T06:10:16.954Z,0
2022-12-27T06:15:16.912Z,0
2022-12-27T06:20:16.949Z,0
2022-12-27T06:25:16.966Z,0
2022-12-27T06:30:16.833Z,0
2022-12-27T06:35:16.954Z,0
2022-12-27T06:40:16.966Z,0
2022-12-27T06:45:16.911Z,0
2022-12-27T06:50:16.962Z,0
2022-12-27T06:55:16.959Z,0
2022-12-27T07:00:16.984Z,0
2022-12-27T07:05:17.039Z,0
2022-12-27T07:10:17.045Z,0
2022-12-27T07:15:17.019Z,0
2022-12-27T07:20:18.341Z,0
2022-12-27T07:25:17.484Z,266
2022-12-27T07:30:18.372Z,268
2022-12-27T07:35:17.038Z,270
2022-12-27T07:40:17.027Z,271
2022-12-27T07:45:17.170Z,273
2022-12-27T07:50:17.231Z,275
2022-12-27T07:55:16.971Z,276
2022-12-27T08:00:16.934Z,278
2022-12-27T08:05:19.365Z,281
2022-12-27T08:10:17.124Z,280
2022-12-27T08:15:16.989Z,283
2022-12-27T08:20:17.093Z,286
2022-12-27T08:25:17.273Z,285
2022-12-27T08:30:17.020Z,288
2022-12-27T08:35:50.709Z,285
2022-12-27T08:40:16.925Z,294
2022-12-27T08:45:17.045Z,292
2022-12-27T08:50:17.061Z,292
2022-12-27T08:55:16.937Z,299
2022-12-27T09:00:16.983Z,298
2022-12-27T09:05:17.070Z,297
2022-12-27T09:10:17.101Z,301
2022-12-27T09:15:17.175Z,299
2022-12-27T09:20:17.032Z,298
2022-12-27T09:25:17.114Z,296
2022-12-27T09:30:16.953Z,296
2022-12-27T09:35:17.137Z,295
2022-12-27T09:40:17.047Z,294
2022-12-27T09:45:16.952Z,294
2022-12-27T09:50:17.028Z,295
2022-12-27T09:55:17.038Z,295
2022-12-27T10:00:16.993Z,293
2022-12-27T10:05:21.471Z,294
2022-12-27T10:10:17.134Z,293
2022-12-27T10:15:16.991Z,293
2022-12-27T10:20:17.050Z,293
2022-12-27T10:25:16.943Z,293
2022-12-27T10:30:16.988Z,291
2022-12-27T10:35:17.015Z,291
2022-12-27T10:40:18.556Z,292
2022-12-27T10:45:16.995Z,292
2022-12-27T10:50:17.178Z,291
2022-12-27T10:55:17.039Z,293
2022-12-27T11:00:17.034Z,292
2022-12-27T11:05:17.098Z,293
2022-12-27T11:10:16.977Z,298
2022-12-27T11:15:16.917Z,289
2022-12-27T11:20:17.090Z,290
2022-12-27T11:25:17.011Z,289
2022-12-27T11:30:16.960Z,288
2022-12-27T11:35:17.227Z,288
2022-12-27T11:40:17.212Z,288
2022-12-27T11:45:16.929Z,287
2022-12-27T11:50:17.091Z,288
2022-12-27T11:55:18.044Z,291
2022-12-27T12:00:16.970Z,288
2022-12-27T12:05:17.418Z,305
2022-12-27T12:10:16.937Z,292
2022-12-27T12:15:16.981Z,290
2022-12-27T12:20:17.399Z,288
2022-12-27T12:25:17.017Z,290
2022-12-27T12:30:17.835Z,294
2022-12-27T12:35:17.185Z,292
2022-12-27T12:40:17.020Z,292
2022-12-27T12:45:16.964Z,291
2022-12-27T12:50:16.939Z,290
2022-12-27T12:55:16.983Z,288
2022-12-27T13:00:17.532Z,289
2022-12-27T13:05:17.305Z,288
2022-12-27T13:10:17.078Z,285
2022-12-27T13:15:16.967Z,282
2022-12-27T13:20:17.230Z,281
2022-12-27T13:25:17.003Z,280
2022-12-27T13:30:16.967Z,279
2022-12-27T13:35:20.522Z,278
2022-12-27T13:40:16.993Z,276
2022-12-27T13:45:17.008Z,278
2022-12-27T13:50:16.983Z,275
2022-12-27T13:55:16.970Z,274
2022-12-27T14:00:17.006Z,274
2022-12-27T14:05:17.289Z,276
2022-12-27T14:10:17.003Z,273
2022-12-27T14:15:17.054Z,274
2022-12-27T14:20:17.578Z,272
2022-12-27T14:25:17.267Z,270
2022-12-27T14:30:16.983Z,269
2022-12-27T14:35:17.019Z,267
2022-12-27T14:40:19.962Z,267
2022-12-27T14:45:18.037Z,268
2022-12-27T14:50:18.522Z,266
2022-12-27T14:55:17.008Z,265
2022-12-27T15:00:16.976Z,265
2022-12-27T15:05:17.133Z,0
2022-12-27T15:10:16.996Z,0
2022-12-27T15:15:17.515Z,0
2022-12-27T15:20:17.062Z,0
2022-12-27T15:25:17.013Z,0
2022-12-27T15:30:17.254Z,0
2022-12-27T15:35:17.026Z,0
2022-12-27T15:40:16.965Z,0
2022-12-27T15:45:17.025Z,0
2022-12-27T15:50:17.074Z,0
2022-12-27T15:55:17.000Z,0
2022-12-27T16:00:16.957Z,0
2022-12-27T16:05:17.585Z,0
2022-12-27T16:10:17.029Z,0
2022-12-27T16:15:17.007Z,0
2022-12-27T16:20:17.030Z,0
2022-12-27T16:25:17.011Z,0
2022-12-27T16:30:16.947Z,0
2022-12-27T16:35:17.081Z,0
2022-12-27T16:40:17.205Z,0
2022-12-27T16:45:17.961Z,0
2022-12-27T16:50:17.067Z,0
2022-12-27T16:55:17.157Z,0
2022-12-27T17:00:16.963Z,0
2022-12-27T17:05:17.057Z,0
2022-12-27T17:10:17.702Z,0
2022-12-27T17:15:17.968Z,0
2022-12-27T17:20:17.240Z,0
2022-12-27T17:25:17.097Z,0
2022-12-27T17:30:17.067Z,0
2022-12-27T17:35:17.590Z,0
2022-12-27T17:40:17.152Z,0
2022-12-27T17:45:16.964Z,0
2022-12-27T17:50:17.159Z,0
2022-12-27T17:55:17.187Z,0
2022-12-27T18:00:17.190Z,0
2022-12-27T18:05:17.112Z,0
2022-12-27T18:10:17.057Z,0
2022-12-27T18:15:18.132Z,0
2022-12-27T18:20:17.072Z,0
2022-12-27T18:25:17.062Z,0
2022-12-27T18:30:17.074Z,0
2022-12-27T18:35:24.221Z,0
2022-12-27T18:40:17.092Z,0
2022-12-27T18:45:17.042Z,0
2022-12-27T18:50:17.180Z,0
2022-12-27T18:55:18.202Z,0
2022-12-27T19:00:17.042Z,0
2022-12-27T19:05:17.125Z,0
2022-12-27T19:10:17.104Z,0
2022-12-27T19:15:16.997Z,0
2022-12-27T19:20:18.163Z,0
2022-12-27T19:25:17.030Z,0
2022-12-27T19:30:16.989Z,0
2022-12-27T19:35:17.216Z,0
2022-12-27T19:40:17.064Z,0
2022-12-27T19:45:16.996Z,0
2022-12-27T19:50:17.137Z,0
2022-12-27T19:55:18.676Z,0
2022-12-27T20:00:17.009Z,0
2022-12-27T20:05:17.180Z,0
2022-12-27T20:10:17.065Z,0
2022-12-27T20:15:17.026Z,0
2022-12-27T20:20:17.200Z,0
2022-12-27T20:25:17.246Z,0
2022-12-27T20:30:16.999Z,0
2022-12-27T20:35:17.157Z,0
2022-12-27T20:40:17.137Z,0
2022-12-27T20:45:17.066Z,0
2022-12-27T20:50:17.176Z,0
2022-12-27T20:55:17.105Z,0
2022-12-27T21:00:17.024Z,0
2022-12-27T21:05:17.206Z,0
2022-12-27T21:10:17.129Z,0
2022-12-27T21:15:17.015Z,0
2022-12-27T21:20:20.454Z,0
2022-12-27T21:25:17.212Z,0
2022-12-27T21:30:17.010Z,0
2022-12-27T21:35:17.115Z,0
2022-12-27T21:40:18.218Z,0
2022-12-27T21:45:17.044Z,0
2022-12-27T21:50:17.131Z,0
2022-12-27T21:55:17.066Z,0
2022-12-27T22:00:17.099Z,0
2022-12-27T22:05:17.147Z,0
2022-12-27T22:10:17.077Z,0
2022-12-27T22:15:17.047Z,0
2022-12-27T22:20:17.219Z,0
2022-12-27T22:25:17.136Z,0
2022-12-27T22:30:17.073Z,0
2022-12-27T22:35:17.156Z,0
2022-12-27T22:40:30.716Z,0
2022-12-27T22:45:17.110Z,0
2022-12-27T22:50:17.216Z,0
2022-12-27T22:55:17.162Z,0
2022-12-27T23:00:26.252Z,0
2022-12-27T23:05:17.294Z,0
2022-12-27T23:10:24.938Z,0
2022-12-27T23:15:17.107Z,0
2022-12-27T23:20:18.755Z,0
2022-12-27T23:25:17.166Z,0
2022-12-27T23:30:17.124Z,0
2022-12-27T23:35:18.282Z,0
2022-12-27T23:40:17.336Z,0
2022-12-27T23:45:17.286Z,0
2022-12-27T23:50:21.717Z,0
2022-12-27T23:55:17.416Z,0
